createdAt,value
2023-02-02T00:00:22.838Z,4.966125488
2023-02-02T00:01:23.316Z,4.966125488
2023-02-02T00:02:24.456Z,4.966125488
2023-02-02T00:03:25.586Z,4.966125488
2023-02-02T00:04:26.101Z,4.956054688
2023-02-02T00:05:26.490Z,4.966125488
2023-02-02T00:06:27.055Z,4.956054688
2023-02-02T00:07:27.439Z,4.956054688
2023-02-02T00:08:27.876Z,4.956054688
2023-02-02T00:09:28.424Z,4.956054688
2023-02-02T00:10:28.898Z,4.956054688
2023-02-02T00:11:29.340Z,4.935913086
2023-02-02T00:12:29.828Z,4.925842285
2023-02-02T00:13:31.087Z,4.935913086
2023-02-02T00:14:31.595Z,4.956054688
2023-02-02T00:15:31.987Z,4.98626709
2023-02-02T00:16:32.502Z,5.006408691
2023-02-02T00:17:33.042Z,5.016479492
2023-02-02T00:18:33.495Z,5.036621094
2023-02-02T00:19:33.957Z,5.036621094
2023-02-02T00:20:34.483Z,5.036621094
2023-02-02T00:21:34.903Z,5.036621094
2023-02-02T00:22:35.342Z,5.016479492
2023-02-02T00:23:36.667Z,4.98626709
2023-02-02T00:25:07.449Z,4.98626709
2023-02-02T00:26:07.861Z,5.006408691
2023-02-02T00:27:09.099Z,5.006408691
2023-02-02T00:28:09.585Z,5.006408691
2023-02-02T00:29:10.018Z,5.006408691
2023-02-02T00:30:10.634Z,5.016479492
2023-02-02T00:31:11.182Z,5.036621094
2023-02-02T00:32:12.591Z,5.036621094
2023-02-02T00:33:13.287Z,5.036621094
2023-02-02T00:34:14.374Z,5.036621094
2023-02-02T00:35:14.837Z,5.046691895
2023-02-02T00:36:15.368Z,5.036621094
2023-02-02T00:37:15.919Z,5.036621094
2023-02-02T00:38:16.506Z,5.036621094
2023-02-02T00:39:17.044Z,5.036621094
2023-02-02T00:40:17.534Z,5.046691895
2023-02-02T00:41:18.018Z,5.016479492
2023-02-02T00:42:18.479Z,5.006408691
2023-02-02T00:43:19.119Z,5.006408691
2023-02-02T00:44:20.382Z,5.016479492
2023-02-02T00:45:20.927Z,4.98626709
2023-02-02T00:46:21.425Z,4.966125488
2023-02-02T00:47:21.916Z,4.956054688
2023-02-02T00:48:22.344Z,4.98626709
2023-02-02T00:49:22.923Z,5.006408691
2023-02-02T00:50:23.674Z,5.016479492
2023-02-02T00:51:24.122Z,5.046691895
2023-02-02T00:52:24.603Z,5.056762695
2023-02-02T00:53:25.621Z,5.076904297
2023-02-02T00:54:26.170Z,5.107116699
2023-02-02T00:55:26.930Z,5.086975098
2023-02-02T00:56:27.926Z,5.107116699
2023-02-02T00:57:28.375Z,5.107116699
2023-02-02T00:58:29.636Z,5.147399902
2023-02-02T00:59:30.261Z,5.137329102
2023-02-02T01:00:30.777Z,5.147399902
2023-02-02T01:01:31.297Z,5.147399902
2023-02-02T01:02:31.884Z,5.187683105
2023-02-02T01:03:33.084Z,5.187683105
2023-02-02T01:04:33.623Z,5.217895508
2023-02-02T01:05:34.159Z,5.217895508
2023-02-02T01:06:34.689Z,5.227966309
2023-02-02T01:07:35.175Z,5.268249512
2023-02-02T01:08:35.626Z,5.298461914
2023-02-02T01:10:06.647Z,5.318603516
2023-02-02T01:11:07.246Z,5.328674316
2023-02-02T01:12:07.767Z,5.36895752
2023-02-02T01:13:08.332Z,5.37902832
2023-02-02T01:14:09.431Z,5.409240723
2023-02-02T01:15:09.972Z,5.409240723
2023-02-02T01:16:10.852Z,5.449523926
2023-02-02T01:17:11.367Z,5.469665527
2023-02-02T01:18:11.971Z,5.479736328
2023-02-02T01:19:12.537Z,5.479736328
2023-02-02T01:20:12.977Z,5.489807129
2023-02-02T01:21:13.510Z,5.469665527
2023-02-02T01:22:14.116Z,5.419311523
2023-02-02T01:23:14.734Z,5.348815918
2023-02-02T01:24:15.838Z,5.288391113
2023-02-02T01:25:16.252Z,5.288391113
2023-02-02T01:26:16.847Z,5.258178711
2023-02-02T01:27:18.177Z,5.258178711
2023-02-02T01:28:18.692Z,5.268249512
2023-02-02T01:29:19.389Z,5.288391113
2023-02-02T01:30:19.932Z,5.288391113
2023-02-02T01:31:20.462Z,5.298461914
2023-02-02T01:32:21.650Z,5.288391113
2023-02-02T01:33:22.248Z,5.288391113
2023-02-02T01:34:23.367Z,5.288391113
2023-02-02T01:35:24.392Z,5.298461914
2023-02-02T01:36:24.504Z,5.258178711
2023-02-02T01:37:24.934Z,5.258178711
2023-02-02T01:38:25.633Z,5.227966309
2023-02-02T01:39:26.170Z,5.227966309
2023-02-02T01:40:26.788Z,5.258178711
2023-02-02T01:41:27.305Z,5.258178711
2023-02-02T01:42:27.774Z,5.268249512
2023-02-02T01:43:28.371Z,5.268249512
2023-02-02T01:44:29.876Z,5.298461914
2023-02-02T01:45:30.411Z,5.318603516
2023-02-02T01:46:31.034Z,5.318603516
2023-02-02T01:47:31.428Z,5.348815918
2023-02-02T01:48:31.851Z,5.348815918
2023-02-02T01:49:32.580Z,5.36895752
2023-02-02T01:50:33.110Z,5.399169922
2023-02-02T01:51:33.715Z,5.409240723
2023-02-02T01:52:34.177Z,5.409240723
2023-02-02T01:53:34.648Z,5.439453125
2023-02-02T01:55:06.247Z,5.439453125
2023-02-02T01:56:07.368Z,5.419311523
2023-02-02T01:57:07.902Z,5.439453125
2023-02-02T01:58:08.329Z,5.449523926
2023-02-02T01:59:08.995Z,5.449523926
2023-02-02T02:00:09.555Z,5.439453125
2023-02-02T02:01:10.137Z,5.439453125
2023-02-02T02:02:11.014Z,5.419311523
2023-02-02T02:03:11.473Z,5.409240723
2023-02-02T02:04:12.670Z,5.399169922
2023-02-02T02:05:13.127Z,5.36895752
2023-02-02T02:06:13.743Z,5.328674316
2023-02-02T02:07:14.270Z,5.318603516
2023-02-02T02:08:14.828Z,5.298461914
2023-02-02T02:09:15.473Z,5.258178711
2023-02-02T02:10:15.872Z,5.227966309
2023-02-02T02:11:16.531Z,5.197753906
2023-02-02T02:12:17.115Z,5.137329102
2023-02-02T02:13:17.637Z,5.107116699
2023-02-02T02:14:19.096Z,5.107116699
2023-02-02T02:15:19.506Z,5.056762695
2023-02-02T02:16:20.098Z,5.056762695
2023-02-02T02:17:20.540Z,5.056762695
2023-02-02T02:18:21.142Z,5.036621094
2023-02-02T02:19:21.687Z,5.046691895
2023-02-02T02:20:22.109Z,5.046691895
2023-02-02T02:21:22.612Z,5.056762695
2023-02-02T02:22:23.065Z,5.076904297
2023-02-02T02:23:23.632Z,5.086975098
2023-02-02T02:24:25.092Z,5.086975098
2023-02-02T02:25:26.109Z,5.107116699
2023-02-02T02:26:27.204Z,5.1171875
2023-02-02T02:27:27.750Z,5.147399902
2023-02-02T02:28:29.126Z,5.167541504
2023-02-02T02:29:29.761Z,5.197753906
2023-02-02T02:30:30.231Z,5.217895508
2023-02-02T02:31:30.852Z,5.227966309
2023-02-02T02:32:31.209Z,5.238037109
2023-02-02T02:33:31.748Z,5.268249512
2023-02-02T02:34:33.192Z,5.288391113
2023-02-02T02:35:33.762Z,5.268249512
2023-02-02T02:36:34.228Z,5.238037109
2023-02-02T02:37:35.185Z,5.268249512
2023-02-02T02:39:05.916Z,5.268249512
2023-02-02T02:40:06.544Z,5.288391113
2023-02-02T02:41:07.140Z,5.268249512
2023-02-02T02:42:07.533Z,5.258178711
2023-02-02T02:43:07.969Z,5.238037109
2023-02-02T02:44:09.088Z,5.227966309
2023-02-02T02:45:09.771Z,5.227966309
2023-02-02T02:46:10.653Z,5.238037109
2023-02-02T02:47:11.215Z,5.238037109
2023-02-02T02:48:11.648Z,5.258178711
2023-02-02T02:49:12.114Z,5.268249512
2023-02-02T02:50:12.855Z,5.288391113
2023-02-02T02:51:13.462Z,5.298461914
2023-02-02T02:52:13.952Z,5.298461914
2023-02-02T02:53:14.421Z,5.298461914
2023-02-02T02:54:15.581Z,5.288391113
2023-02-02T02:55:16.142Z,5.268249512
2023-02-02T02:56:16.669Z,5.288391113
2023-02-02T02:57:17.180Z,5.288391113
2023-02-02T02:58:18.624Z,5.288391113
2023-02-02T02:59:19.116Z,5.298461914
2023-02-02T03:00:19.559Z,5.318603516
2023-02-02T03:01:20.334Z,5.328674316
2023-02-02T03:02:20.820Z,5.348815918
2023-02-02T03:03:21.318Z,5.328674316
2023-02-02T03:04:21.892Z,5.36895752
2023-02-02T03:05:22.800Z,5.37902832
2023-02-02T03:06:22.815Z,5.36895752
2023-02-02T03:07:23.433Z,5.36895752
2023-02-02T03:08:23.957Z,5.36895752
2023-02-02T03:09:24.537Z,5.37902832
2023-02-02T03:10:24.962Z,5.37902832
2023-02-02T03:11:25.572Z,5.399169922
2023-02-02T03:12:27.511Z,5.399169922
2023-02-02T03:13:28.049Z,5.409240723
2023-02-02T03:14:29.102Z,5.399169922
2023-02-02T03:15:29.637Z,5.399169922
2023-02-02T03:16:30.068Z,5.399169922
2023-02-02T03:17:30.600Z,5.37902832
2023-02-02T03:18:31.211Z,5.37902832
2023-02-02T03:19:31.754Z,5.36895752
2023-02-02T03:20:32.291Z,5.36895752
2023-02-02T03:21:32.818Z,5.328674316
2023-02-02T03:22:33.212Z,5.328674316
2023-02-02T03:23:33.843Z,5.328674316
2023-02-02T03:24:35.720Z,5.37902832
2023-02-02T03:26:06.562Z,5.37902832
2023-02-02T03:27:07.069Z,5.37902832
2023-02-02T03:28:08.388Z,5.409240723
2023-02-02T03:29:09.177Z,5.419311523
2023-02-02T03:30:09.692Z,5.409240723
2023-02-02T03:31:10.644Z,5.419311523
2023-02-02T03:32:11.157Z,5.409240723
2023-02-02T03:33:11.726Z,5.37902832
2023-02-02T03:34:12.248Z,5.37902832
2023-02-02T03:35:12.838Z,5.348815918
2023-02-02T03:36:14.355Z,5.36895752
2023-02-02T03:37:14.842Z,5.36895752
2023-02-02T03:38:15.388Z,5.36895752
2023-02-02T03:39:16.033Z,5.348815918
2023-02-02T03:40:16.738Z,5.328674316
2023-02-02T03:41:17.259Z,5.348815918
2023-02-02T03:42:17.759Z,5.348815918
2023-02-02T03:43:18.187Z,5.318603516
2023-02-02T03:44:18.702Z,5.318603516
2023-02-02T03:45:19.931Z,5.298461914
2023-02-02T03:46:20.505Z,5.318603516
2023-02-02T03:47:20.975Z,5.318603516
2023-02-02T03:48:21.432Z,5.298461914
2023-02-02T03:49:22.005Z,5.268249512
2023-02-02T03:50:22.523Z,5.258178711
2023-02-02T03:51:23.101Z,5.238037109
2023-02-02T03:52:23.771Z,5.238037109
2023-02-02T03:53:24.820Z,5.258178711
2023-02-02T03:54:25.356Z,5.258178711
2023-02-02T03:55:26.175Z,5.258178711
2023-02-02T03:56:27.199Z,5.258178711
2023-02-02T03:57:27.724Z,5.258178711
2023-02-02T03:58:28.228Z,5.258178711
2023-02-02T03:59:28.719Z,5.258178711
2023-02-02T04:00:29.158Z,5.227966309
2023-02-02T04:01:29.684Z,5.217895508
2023-02-02T04:02:30.347Z,5.217895508
2023-02-02T04:03:30.837Z,5.197753906
2023-02-02T04:04:31.371Z,5.217895508
2023-02-02T04:05:32.919Z,5.217895508
2023-02-02T04:06:33.480Z,5.197753906
2023-02-02T04:08:04.870Z,5.197753906
2023-02-02T04:09:05.398Z,5.197753906
2023-02-02T04:10:05.924Z,5.217895508
2023-02-02T04:11:06.414Z,5.187683105
2023-02-02T04:12:07.013Z,5.167541504
2023-02-02T04:13:07.643Z,5.197753906
2023-02-02T04:14:08.106Z,5.187683105
2023-02-02T04:15:09.530Z,5.187683105
2023-02-02T04:16:10.909Z,5.167541504
2023-02-02T04:17:11.398Z,5.187683105
2023-02-02T04:18:11.934Z,5.187683105
2023-02-02T04:19:12.535Z,5.147399902
2023-02-02T04:20:13.045Z,5.147399902
2023-02-02T04:21:13.551Z,5.167541504
2023-02-02T04:22:14.074Z,5.167541504
2023-02-02T04:23:14.575Z,5.147399902
2023-02-02T04:24:15.184Z,5.1171875
2023-02-02T04:25:16.402Z,5.107116699
2023-02-02T04:26:16.892Z,5.107116699
2023-02-02T04:27:18.129Z,5.086975098
2023-02-02T04:28:18.630Z,5.086975098
2023-02-02T04:29:19.181Z,5.086975098
2023-02-02T04:30:19.763Z,5.076904297
2023-02-02T04:31:20.316Z,5.086975098
2023-02-02T04:32:20.767Z,5.086975098
2023-02-02T04:33:21.225Z,5.076904297
2023-02-02T04:34:21.673Z,5.076904297
2023-02-02T04:35:23.513Z,5.086975098
2023-02-02T04:36:23.468Z,5.076904297
2023-02-02T04:37:24.008Z,5.086975098
2023-02-02T04:38:24.568Z,5.086975098
2023-02-02T04:39:25.011Z,5.086975098
2023-02-02T04:40:26.207Z,5.107116699
2023-02-02T04:41:26.772Z,5.1171875
2023-02-02T04:42:27.262Z,5.1171875
2023-02-02T04:43:27.776Z,5.137329102
2023-02-02T04:44:28.200Z,5.147399902
2023-02-02T04:45:29.416Z,5.147399902
2023-02-02T04:46:30.049Z,5.167541504
2023-02-02T04:47:30.521Z,5.187683105
2023-02-02T04:48:31.164Z,5.197753906
2023-02-02T04:49:31.638Z,5.217895508
2023-02-02T04:50:32.047Z,5.217895508
2023-02-02T04:51:32.643Z,5.197753906
2023-02-02T04:52:33.127Z,5.187683105
2023-02-02T04:54:04.216Z,5.187683105
2023-02-02T04:55:04.658Z,5.167541504
2023-02-02T04:56:05.097Z,5.187683105
2023-02-02T04:57:05.777Z,5.197753906
2023-02-02T04:58:06.868Z,5.217895508
2023-02-02T04:59:07.535Z,5.227966309
2023-02-02T05:00:08.007Z,5.238037109
2023-02-02T05:01:08.509Z,5.268249512
2023-02-02T05:02:08.934Z,5.288391113
2023-02-02T05:03:09.522Z,5.298461914
2023-02-02T05:04:10.150Z,5.328674316
2023-02-02T05:05:11.570Z,5.348815918
2023-02-02T05:06:14.701Z,5.348815918
2023-02-02T05:07:12.657Z,5.36895752
2023-02-02T05:08:13.321Z,5.36895752
2023-02-02T05:09:13.869Z,5.348815918
2023-02-02T05:10:14.530Z,5.36895752
2023-02-02T05:11:15.117Z,5.348815918
2023-02-02T05:12:15.565Z,5.348815918
2023-02-02T05:13:16.413Z,5.36895752
2023-02-02T05:14:17.393Z,5.37902832
2023-02-02T05:15:18.853Z,5.399169922
2023-02-02T05:16:19.384Z,5.409240723
2023-02-02T05:17:19.944Z,5.399169922
2023-02-02T05:18:20.430Z,5.37902832
2023-02-02T05:19:21.100Z,5.37902832
2023-02-02T05:20:21.607Z,5.37902832
2023-02-02T05:21:22.219Z,5.399169922
2023-02-02T05:22:22.671Z,5.409240723
2023-02-02T05:23:23.091Z,5.37902832
2023-02-02T05:24:23.713Z,5.36895752
2023-02-02T05:25:25.439Z,5.348815918
2023-02-02T05:26:25.710Z,5.328674316
2023-02-02T05:27:26.794Z,5.348815918
2023-02-02T05:28:27.298Z,5.36895752
2023-02-02T05:29:27.750Z,5.36895752
2023-02-02T05:30:28.322Z,5.36895752
2023-02-02T05:31:28.887Z,5.36895752
2023-02-02T05:32:29.394Z,5.36895752
2023-02-02T05:33:30.891Z,5.348815918
2023-02-02T05:34:31.356Z,5.348815918
2023-02-02T05:35:31.896Z,5.328674316
2023-02-02T05:36:32.540Z,5.328674316
2023-02-02T05:38:04.397Z,5.328674316
2023-02-02T05:39:04.940Z,5.298461914
2023-02-02T05:40:05.433Z,5.288391113
2023-02-02T05:41:05.972Z,5.288391113
2023-02-02T05:42:06.555Z,5.268249512
2023-02-02T05:43:07.601Z,5.258178711
2023-02-02T05:44:08.097Z,5.258178711
2023-02-02T05:45:08.607Z,5.258178711
2023-02-02T05:46:10.026Z,5.258178711
2023-02-02T05:47:10.601Z,5.268249512
2023-02-02T05:48:11.160Z,5.258178711
2023-02-02T05:49:11.605Z,5.268249512
2023-02-02T05:50:12.066Z,5.238037109
2023-02-02T05:51:12.521Z,5.238037109
2023-02-02T05:52:13.436Z,5.238037109
2023-02-02T05:53:14.025Z,5.238037109
2023-02-02T05:54:14.526Z,5.258178711
2023-02-02T05:55:15.599Z,5.258178711
2023-02-02T05:56:16.177Z,5.268249512
2023-02-02T05:57:16.684Z,5.268249512
2023-02-02T05:58:17.995Z,5.268249512
2023-02-02T05:59:18.654Z,5.258178711
2023-02-02T06:00:19.106Z,5.238037109
2023-02-02T06:01:19.582Z,5.197753906
2023-02-02T06:02:20.043Z,5.167541504
2023-02-02T06:03:20.792Z,5.167541504
2023-02-02T06:04:21.212Z,5.137329102
2023-02-02T06:05:22.902Z,5.1171875
2023-02-02T06:06:23.209Z,5.086975098
2023-02-02T06:07:23.643Z,5.107116699
2023-02-02T06:08:24.214Z,5.107116699
2023-02-02T06:09:24.806Z,5.137329102
2023-02-02T06:10:25.358Z,5.137329102
2023-02-02T06:11:25.782Z,5.137329102
2023-02-02T06:12:26.347Z,5.137329102
2023-02-02T06:13:26.783Z,5.1171875
2023-02-02T06:14:27.398Z,5.1171875
2023-02-02T06:15:28.743Z,5.107116699
2023-02-02T06:16:29.087Z,5.086975098
2023-02-02T06:17:29.718Z,5.086975098
2023-02-02T06:18:30.290Z,5.086975098
2023-02-02T06:19:30.746Z,5.086975098
2023-02-02T06:20:31.396Z,5.036621094
2023-02-02T06:21:31.989Z,5.046691895
2023-02-02T06:23:02.998Z,5.046691895
2023-02-02T06:24:03.526Z,5.056762695
2023-02-02T06:25:04.007Z,5.046691895
2023-02-02T06:26:05.513Z,5.036621094
2023-02-02T06:27:06.011Z,5.036621094
2023-02-02T06:28:07.137Z,5.046691895
2023-02-02T06:29:07.706Z,5.056762695
2023-02-02T06:30:08.099Z,5.076904297
2023-02-02T06:31:08.860Z,5.086975098
2023-02-02T06:32:09.333Z,5.107116699
2023-02-02T06:33:09.811Z,5.1171875
2023-02-02T06:34:40.621Z,5.086975098
2023-02-02T06:36:11.905Z,5.107116699
2023-02-02T06:37:12.505Z,5.076904297
2023-02-02T06:38:13.022Z,5.046691895
2023-02-02T06:39:13.511Z,5.056762695
2023-02-02T06:40:13.991Z,5.046691895
2023-02-02T06:41:14.561Z,5.036621094
2023-02-02T06:42:21.162Z,5.046691895
2023-02-02T06:43:15.782Z,5.036621094
2023-02-02T06:44:16.389Z,5.036621094
2023-02-02T06:45:16.892Z,4.98626709
2023-02-02T06:46:18.380Z,4.98626709
2023-02-02T06:47:18.840Z,5.006408691
2023-02-02T06:48:19.318Z,5.036621094
2023-02-02T06:49:19.941Z,5.046691895
2023-02-02T06:50:20.476Z,5.046691895
2023-02-02T06:51:20.888Z,5.076904297
2023-02-02T06:52:21.342Z,5.056762695
2023-02-02T06:53:21.935Z,5.056762695
2023-02-02T06:54:22.453Z,5.076904297
2023-02-02T06:55:23.351Z,5.076904297
2023-02-02T06:56:24.280Z,5.076904297
2023-02-02T06:57:25.641Z,5.076904297
2023-02-02T06:58:26.268Z,5.056762695
2023-02-02T06:59:26.733Z,5.056762695
2023-02-02T07:00:27.435Z,5.056762695
2023-02-02T07:01:27.881Z,5.046691895
2023-02-02T07:02:28.340Z,5.056762695
2023-02-02T07:03:28.772Z,5.036621094
2023-02-02T07:04:29.375Z,5.016479492
2023-02-02T07:05:30.856Z,5.016479492
2023-02-02T07:06:31.350Z,4.905700684
2023-02-02T07:08:02.451Z,4.86541748
2023-02-02T07:09:03.553Z,4.85534668
2023-02-02T07:10:03.521Z,4.85534668
2023-02-02T07:11:15.417Z,4.86541748
2023-02-02T07:12:04.530Z,4.835205078
2023-02-02T07:13:05.097Z,4.835205078
2023-02-02T07:14:05.559Z,4.825134277
2023-02-02T07:15:06.074Z,4.825134277
2023-02-02T07:16:07.616Z,4.85534668
2023-02-02T07:17:08.133Z,4.825134277
2023-02-02T07:18:08.628Z,4.825134277
2023-02-02T07:19:09.084Z,4.835205078
2023-02-02T07:20:09.677Z,4.86541748
2023-02-02T07:21:10.558Z,4.895629883
2023-02-02T07:22:11.009Z,4.905700684
2023-02-02T07:23:11.563Z,4.905700684
2023-02-02T07:24:12.007Z,4.935913086
2023-02-02T07:25:12.444Z,4.956054688
2023-02-02T07:26:13.642Z,5.006408691
2023-02-02T07:27:14.133Z,5.006408691
2023-02-02T07:28:15.681Z,5.016479492
2023-02-02T07:29:16.151Z,5.016479492
2023-02-02T07:30:16.573Z,5.016479492
2023-02-02T07:31:17.438Z,5.036621094
2023-02-02T07:32:17.782Z,5.046691895
2023-02-02T07:33:18.279Z,5.046691895
2023-02-02T07:34:18.784Z,5.056762695
2023-02-02T07:35:19.194Z,5.076904297
2023-02-02T07:36:19.799Z,5.076904297
2023-02-02T07:37:20.357Z,5.076904297
2023-02-02T07:38:20.832Z,5.107116699
2023-02-02T07:39:21.439Z,5.1171875
2023-02-02T07:40:21.865Z,5.1171875
2023-02-02T07:41:22.270Z,5.147399902
2023-02-02T07:42:22.900Z,5.147399902
2023-02-02T07:43:23.378Z,5.1171875
2023-02-02T07:44:23.954Z,5.1171875
2023-02-02T07:45:27.884Z,5.107116699
2023-02-02T07:46:24.870Z,5.1171875
2023-02-02T07:47:25.565Z,5.1171875
2023-02-02T07:48:26.072Z,5.137329102
2023-02-02T07:49:26.646Z,5.147399902
2023-02-02T07:50:27.367Z,5.167541504
2023-02-02T07:51:27.635Z,5.187683105
2023-02-02T07:52:28.207Z,5.167541504
2023-02-02T07:53:28.805Z,5.187683105
2023-02-02T07:54:29.383Z,5.197753906
2023-02-02T07:55:30.247Z,5.217895508
2023-02-02T07:57:01.817Z,5.197753906
2023-02-02T07:58:02.425Z,5.187683105
2023-02-02T07:59:03.935Z,5.197753906
2023-02-02T08:00:04.455Z,5.227966309
2023-02-02T08:01:05.051Z,5.227966309
2023-02-02T08:02:05.646Z,5.227966309
2023-02-02T08:03:05.965Z,5.217895508
2023-02-02T08:04:06.528Z,5.227966309
2023-02-02T08:05:07.092Z,5.227966309
2023-02-02T08:06:08.279Z,5.197753906
2023-02-02T08:07:08.779Z,5.227966309
2023-02-02T08:08:09.204Z,5.238037109
2023-02-02T08:09:09.784Z,5.258178711
2023-02-02T08:10:10.637Z,5.268249512
2023-02-02T08:11:11.911Z,5.268249512
2023-02-02T08:12:12.491Z,5.298461914
2023-02-02T08:13:12.910Z,5.288391113
2023-02-02T08:14:13.447Z,5.268249512
2023-02-02T08:15:14.924Z,5.238037109
2023-02-02T08:16:16.216Z,5.258178711
2023-02-02T08:17:16.631Z,5.258178711
2023-02-02T08:18:17.079Z,5.288391113
2023-02-02T08:19:17.498Z,5.298461914
2023-02-02T08:20:18.026Z,5.318603516
2023-02-02T08:21:18.595Z,5.318603516
2023-02-02T08:22:20.406Z,5.318603516
2023-02-02T08:23:19.604Z,5.298461914
2023-02-02T08:24:20.071Z,5.318603516
2023-02-02T08:25:20.724Z,5.288391113
2023-02-02T08:26:22.200Z,5.298461914
2023-02-02T08:27:22.663Z,5.328674316
2023-02-02T08:28:23.808Z,5.348815918
2023-02-02T08:29:24.234Z,5.348815918
2023-02-02T08:30:25.786Z,5.328674316
2023-02-02T08:31:26.271Z,5.36895752
2023-02-02T08:32:26.633Z,5.409240723
2023-02-02T08:33:27.086Z,5.409240723
2023-02-02T08:34:27.552Z,5.439453125
2023-02-02T08:35:28.026Z,5.469665527
2023-02-02T08:36:29.086Z,5.50994873
2023-02-02T08:37:29.632Z,5.560302734
2023-02-02T08:38:30.264Z,5.600585938
2023-02-02T08:40:01.387Z,5.63079834
2023-02-02T08:41:01.850Z,5.661010742
2023-02-02T08:42:02.326Z,5.671081543
2023-02-02T08:43:02.792Z,5.691223145
2023-02-02T08:44:03.356Z,5.701293945
2023-02-02T08:46:01.171Z,5.731506348
2023-02-02T08:46:13.115Z,5.771789551
2023-02-02T08:47:05.453Z,5.802001953
2023-02-02T08:48:12.111Z,5.832214355
2023-02-02T08:49:07.103Z,5.812072754
2023-02-02T08:50:07.586Z,5.781860352
2023-02-02T08:51:08.144Z,5.741577148
2023-02-02T08:52:08.661Z,5.741577148
2023-02-02T08:53:09.960Z,5.751647949
2023-02-02T08:54:10.636Z,5.741577148
2023-02-02T08:55:11.143Z,5.751647949
2023-02-02T08:56:11.742Z,5.751647949
2023-02-02T08:57:12.831Z,5.771789551
2023-02-02T08:58:13.908Z,5.751647949
2023-02-02T08:59:15.166Z,5.802001953
2023-02-02T09:00:15.706Z,5.832214355
2023-02-02T09:01:16.546Z,5.842285156
2023-02-02T09:02:17.239Z,5.852355957
2023-02-02T09:03:18.354Z,5.852355957
2023-02-02T09:04:18.912Z,5.872497559
2023-02-02T09:05:19.432Z,5.882568359
2023-02-02T09:06:19.911Z,5.882568359
2023-02-02T09:07:21.288Z,5.922851563
2023-02-02T09:08:21.016Z,5.902709961
2023-02-02T09:09:22.429Z,5.872497559
2023-02-02T09:10:23.034Z,5.872497559
2023-02-02T09:11:23.523Z,5.872497559
2023-02-02T09:12:24.005Z,5.902709961
2023-02-02T09:13:24.665Z,5.902709961
2023-02-02T09:14:25.141Z,5.882568359
2023-02-02T09:15:26.101Z,5.852355957
2023-02-02T09:16:26.517Z,5.852355957
2023-02-02T09:17:27.805Z,5.832214355
2023-02-02T09:18:28.353Z,5.872497559
2023-02-02T09:19:29.057Z,5.882568359
2023-02-02T09:20:29.723Z,5.932922363
2023-02-02T09:22:00.770Z,5.932922363
2023-02-02T09:23:01.274Z,5.902709961
2023-02-02T09:24:01.866Z,5.932922363
2023-02-02T09:25:02.403Z,5.932922363
2023-02-02T09:26:03.008Z,5.902709961
2023-02-02T09:27:04.349Z,5.902709961
2023-02-02T09:28:05.612Z,5.932922363
2023-02-02T09:29:06.176Z,5.932922363
2023-02-02T09:30:06.607Z,5.932922363
2023-02-02T09:31:07.209Z,5.932922363
2023-02-02T09:32:07.693Z,5.932922363
2023-02-02T09:33:08.098Z,5.963134766
2023-02-02T09:34:08.546Z,5.983276367
2023-02-02T09:35:09.156Z,5.993347168
2023-02-02T09:36:09.775Z,5.983276367
2023-02-02T09:37:10.860Z,6.01348877
2023-02-02T09:38:11.407Z,6.02355957
2023-02-02T09:39:11.848Z,6.053771973
2023-02-02T09:40:12.335Z,6.053771973
2023-02-02T09:41:13.007Z,6.053771973
2023-02-02T09:42:13.611Z,6.033630371
2023-02-02T09:43:14.169Z,6.033630371
2023-02-02T09:44:15.601Z,6.02355957
2023-02-02T09:45:16.151Z,6.02355957
2023-02-02T09:46:16.743Z,6.02355957
2023-02-02T09:47:17.882Z,6.02355957
2023-02-02T09:48:18.402Z,6.033630371
2023-02-02T09:49:18.953Z,6.053771973
2023-02-02T09:50:19.347Z,6.033630371
2023-02-02T09:51:19.975Z,6.053771973
2023-02-02T09:52:20.493Z,6.083984375
2023-02-02T09:53:21.085Z,6.063842773
2023-02-02T09:54:21.727Z,6.053771973
2023-02-02T09:55:22.412Z,6.053771973
2023-02-02T09:56:22.641Z,6.033630371
2023-02-02T09:57:23.903Z,6.033630371
2023-02-02T09:58:25.195Z,6.053771973
2023-02-02T09:59:25.680Z,6.033630371
2023-02-02T10:00:26.150Z,6.033630371
2023-02-02T10:01:26.826Z,6.033630371
2023-02-02T10:02:27.372Z,6.083984375
2023-02-02T10:03:27.939Z,6.104125977
2023-02-02T10:04:28.514Z,6.114196777
2023-02-02T10:05:29.115Z,6.104125977
2023-02-02T10:06:30.014Z,6.114196777
2023-02-02T10:08:01.782Z,6.104125977
2023-02-02T10:09:02.325Z,6.114196777
2023-02-02T10:10:02.963Z,6.164550781
2023-02-02T10:11:03.527Z,6.194763184
2023-02-02T10:12:05.048Z,6.204833984
2023-02-02T10:13:05.492Z,6.194763184
2023-02-02T10:14:06.005Z,6.214904785
2023-02-02T10:15:06.599Z,6.245117188
2023-02-02T10:16:07.237Z,6.245117188
2023-02-02T10:17:08.619Z,6.214904785
2023-02-02T10:18:09.335Z,6.235046387
2023-02-02T10:19:09.891Z,6.235046387
2023-02-02T10:20:10.589Z,6.245117188
2023-02-02T10:21:11.129Z,6.204833984
2023-02-02T10:22:11.594Z,6.214904785
2023-02-02T10:23:12.195Z,6.204833984
2023-02-02T10:24:12.695Z,6.204833984
2023-02-02T10:25:13.535Z,6.214904785
2023-02-02T10:26:13.908Z,6.235046387
2023-02-02T10:27:15.122Z,6.235046387
2023-02-02T10:28:15.522Z,6.265258789
2023-02-02T10:29:16.831Z,6.245117188
2023-02-02T10:30:17.306Z,6.265258789
2023-02-02T10:31:17.939Z,6.235046387
2023-02-02T10:32:18.281Z,6.204833984
2023-02-02T10:33:18.716Z,6.235046387
2023-02-02T10:34:19.214Z,6.245117188
2023-02-02T10:35:19.884Z,6.265258789
2023-02-02T10:36:20.451Z,6.27532959
2023-02-02T10:37:21.581Z,6.265258789
2023-02-02T10:38:22.201Z,6.27532959
2023-02-02T10:39:22.645Z,6.295471191
2023-02-02T10:40:23.459Z,6.315612793
2023-02-02T10:41:23.898Z,6.315612793
2023-02-02T10:42:24.505Z,6.325683594
2023-02-02T10:43:25.600Z,6.345825195
2023-02-02T10:44:26.169Z,6.376037598
2023-02-02T10:45:26.744Z,6.396179199
2023-02-02T10:46:27.646Z,6.416320801
2023-02-02T10:47:28.901Z,6.426391602
2023-02-02T10:49:01.897Z,6.446533203
2023-02-02T10:50:01.713Z,6.476745605
2023-02-02T10:51:02.335Z,6.476745605
2023-02-02T10:52:03.023Z,6.496887207
2023-02-02T10:53:03.901Z,6.527099609
2023-02-02T10:54:04.573Z,6.567382813
2023-02-02T10:55:05.198Z,6.577453613
2023-02-02T10:56:05.749Z,6.627807617
2023-02-02T10:57:07.309Z,6.637878418
2023-02-02T10:58:08.081Z,6.647949219
2023-02-02T10:59:09.719Z,6.647949219
2023-02-02T11:00:10.655Z,6.637878418
2023-02-02T11:01:11.533Z,6.647949219
2023-02-02T11:02:20.654Z,6.678161621
2023-02-02T11:03:12.759Z,6.688232422
2023-02-02T11:04:13.742Z,6.647949219
2023-02-02T11:05:14.641Z,6.637878418